SBBRSBRB

Guest
Details From SBBR - Brasilia Presidente Juscelino Kubitsch
To SBRB - Presidente Medici
Flight Number -
Tags Generated
Created
Modified
Stats Distance 1,223 nm / 2,265 km
Max Altitude 0 ft / 0 m
Waypoints 4
Social Downloads 6
Likes 0
Share VATSIM

Download

Looking for another format? Having issues loading an existing format? Contact us
Advertisement - Login to hide

Notes

Generated

Route

SBBR VLH RBC SBRB

ID Type Via Altitude Latitude Longitude Leg Dist Tot Dist Heading (true) Name
O SBBR APT - 0 ft / 0 m -15.86350˚ -47.92758˚ - 0 nm - -
VLH NDB - 0 ft / 0 m -12.68950˚ -60.10333˚ 733 nm 733 nm 283° / 287° VILHENA NDB
RBC VOR - 0 ft / 0 m -9.87183˚ -67.89533˚ 489 nm 1222 nm 289° / 291° BRANCO VOR-DME
O SBRB APT - 0 ft / 0 m -9.87446˚ -67.90237˚ 0 nm 1223 nm 249° / 249° -

Altitude Profile

Advertisement - Login to hide

Weather


0- 5 10 15 20 25 30 35+ Temperature / ° C

Clouds and Precipitation
Forecast for 2018-05-23 12:00 UTC. Updated 2 hours ago

Ground ~20,000 ft ~40,000 ft Winds

SBBR

Details ICAO SBBR (BSB)
Name Brasilia Presidente Juscelino Kubitsch
Region Brazil
Timezone America/Sao_Paulo (UTC-3.0)
Stats Elevation 3,479 ft / 1,060 m (AMSL)
Location -15.871101° -47.918626°
Runways 2
Magnetic Variation 21.594° W

METAR

SBBR 231300Z 20002KT CAVOK 20/12 Q1024

Decode

TAF

TAF SBBR 231000Z 2312/2412 06005KT 8000 NSC TX26/2317Z TN11/2407Z BECMG 2316/2318 13005KT BECMG 2322/2324 20005KT CAVOK RMK PDB

Decode

Departure Runways

ID Width Length Bearing (true) Bearing (mag) Surface Threshold Offset Overrun Length
11L 148 ft / 45 m 10,493 ft / 3,198 m 86.35° 107.94° Asphalt 0 ft / 0 m 200 ft / 61 m
11R 148 ft / 45 m 10,839 ft / 3,304 m 86.00° 107.59° Asphalt 2,635 ft / 803 m 200 ft / 61 m
29L 148 ft / 45 m 10,839 ft / 3,304 m 265.99° 287.58° Asphalt 0 ft / 0 m 200 ft / 61 m
29R 148 ft / 45 m 10,493 ft / 3,198 m 266.34° 287.93° Asphalt 0 ft / 0 m 200 ft / 61 m

SBRB

Details ICAO SBRB (RBR)
Name Presidente Medici
Region Brazil
Timezone America/Rio_Branco (UTC-5.0)
Stats Elevation 634 ft / 193 m (AMSL)
Location -9.869157° -67.894072°
Runways 1
Magnetic Variation 9.760° W

METAR

SBRB 231300Z 16008KT CAVOK 22/18 Q1018

Decode

TAF

TAF SBRB 231000Z 2312/2412 18005KT 9999 FEW010 TX30/2317Z TN21/2408Z BECMG 2315/2317 15005KT SCT025 BECMG 2322/2324 03003KT CAVOK RMK PEH

Decode

Destination Runways

ID Width Length Bearing (true) Bearing (mag) Surface Threshold Offset Overrun Length
06 148 ft / 45 m 7,115 ft / 2,169 m 57.02° 66.78° Asphalt 0 ft / 0 m 120 ft / 37 m
24 148 ft / 45 m 7,115 ft / 2,169 m 237.01° 246.77° Asphalt 0 ft / 0 m 180 ft / 55 m

Approach Navaids

Runway Type Ident Frequency Range Bearing (true) Bearing (mag) Slope Elevation
06 Localiser IRB 109.30 MHz 18 nm / 33 km 56.93° 66.69° - 634 ft / 193 m (AMSL)

Popular Alternatives